createdAt,value
2022-11-02T00:01:24.017Z,34.30
2022-11-02T00:03:52.596Z,34.29
2022-11-02T00:06:20.799Z,34.58
2022-11-02T00:08:49.086Z,34.80
2022-11-02T00:11:18.752Z,34.30
2022-11-02T00:13:47.324Z,34.54
2022-11-02T00:16:16.856Z,33.90
2022-11-02T00:18:45.753Z,34.27
2022-11-02T00:21:14.899Z,34.34
2022-11-02T00:23:43.541Z,34.60
2022-11-02T00:26:11.760Z,34.70
2022-11-02T00:28:41.418Z,34.34
2022-11-02T00:31:10.104Z,34.89
2022-11-02T00:33:38.459Z,34.71
2022-11-02T00:36:06.915Z,34.57
2022-11-02T00:38:35.329Z,34.88
2022-11-02T00:41:03.704Z,35.01
2022-11-02T00:43:32.148Z,35.19
2022-11-02T00:46:02.159Z,34.99
2022-11-02T00:48:30.547Z,35.49
2022-11-02T00:50:58.850Z,35.38
2022-11-02T00:53:27.445Z,35.58
2022-11-02T00:55:55.835Z,35.68
2022-11-02T00:58:24.264Z,35.49
2022-11-02T01:00:52.469Z,35.49
2022-11-02T01:03:22.307Z,34.92
2022-11-02T01:05:50.467Z,35.07
2022-11-02T01:08:18.965Z,35.06
2022-11-02T01:10:48.409Z,35.17
2022-11-02T01:13:17.079Z,35.09
2022-11-02T01:15:45.320Z,35.24
2022-11-02T01:18:14.151Z,35.27
2022-11-02T01:20:43.797Z,34.98
2022-11-02T01:23:12.291Z,35.23
2022-11-02T01:25:46.252Z,34.71
2022-11-02T01:28:14.802Z,35.32
2022-11-02T01:30:43.071Z,35.04
2022-11-02T01:33:12.203Z,35.34
2022-11-02T01:35:40.376Z,35.48
2022-11-02T01:38:10.290Z,34.99
2022-11-02T01:40:39.356Z,35.39
2022-11-02T01:43:21.752Z,34.64
2022-11-02T01:45:51.153Z,35.44
2022-11-02T01:48:21.274Z,35.55
2022-11-02T01:50:50.213Z,35.76
2022-11-02T01:53:19.882Z,35.57
2022-11-02T01:55:48.283Z,35.83
2022-11-02T01:58:16.757Z,35.94
2022-11-02T02:00:45.176Z,35.82
2022-11-02T02:03:17.810Z,35.65
2022-11-02T02:05:49.170Z,35.57
2022-11-02T02:08:20.874Z,35.75
2022-11-02T02:10:49.038Z,36.09
2022-11-02T02:13:18.122Z,36.05
2022-11-02T02:15:50.973Z,35.44
2022-11-02T02:18:25.070Z,35.42
2022-11-02T02:21:04.072Z,35.38
2022-11-02T02:23:50.087Z,35.40
2022-11-02T02:26:41.729Z,34.82
2022-11-02T02:29:13.063Z,35.46
2022-11-02T02:31:44.649Z,35.45
2022-11-02T02:34:17.612Z,35.38
2022-11-02T02:36:49.240Z,35.86
2022-11-02T02:39:21.219Z,35.67
2022-11-02T02:41:56.003Z,35.45
2022-11-02T02:44:30.074Z,35.49
2022-11-02T02:47:00.705Z,35.59
2022-11-02T02:49:31.702Z,35.52
2022-11-02T02:52:00.947Z,35.75
2022-11-02T02:54:33.013Z,35.59
2022-11-02T02:57:05.097Z,35.70
2022-11-02T02:59:38.043Z,35.61
2022-11-02T03:02:07.586Z,35.87
2022-11-02T03:04:36.046Z,35.93
2022-11-02T03:07:04.507Z,36.09
2022-11-02T03:09:36.946Z,35.57
2022-11-02T03:12:12.941Z,35.42
2022-11-02T03:14:49.844Z,35.43
2022-11-02T03:17:19.327Z,35.90
2022-11-02T03:19:52.660Z,35.61
2022-11-02T03:22:26.423Z,35.75
2022-11-02T03:25:01.427Z,35.62
2022-11-02T03:27:36.747Z,35.81
2022-11-02T03:30:09.871Z,35.74
2022-11-02T03:32:40.846Z,35.54
2022-11-02T03:35:14.357Z,35.30
2022-11-02T03:37:46.404Z,35.68
2022-11-02T03:40:18.474Z,35.63
2022-11-02T03:42:47.268Z,35.89
2022-11-02T03:45:20.085Z,35.41
2022-11-02T03:47:50.976Z,35.31
2022-11-02T03:50:22.851Z,35.25
2022-11-02T03:52:57.233Z,34.97
2022-11-02T03:55:30.022Z,35.25
2022-11-02T03:57:59.245Z,35.62
2022-11-02T04:00:31.543Z,35.12
2022-11-02T04:03:04.196Z,35.26
2022-11-02T04:05:34.254Z,35.36
2022-11-02T04:08:20.443Z,35.58
2022-11-02T04:11:06.679Z,35.69
2022-11-02T04:13:52.744Z,35.58
2022-11-02T04:16:27.551Z,35.34
2022-11-02T04:19:14.151Z,35.69
2022-11-02T04:22:03.085Z,35.33
2022-11-02T04:24:48.715Z,35.45
2022-11-02T04:27:20.912Z,35.59
2022-11-02T04:29:49.608Z,35.51
2022-11-02T04:32:39.945Z,35.14
2022-11-02T04:35:08.498Z,35.39
2022-11-02T04:37:58.351Z,35.11
2022-11-02T04:40:26.717Z,35.46
2022-11-02T04:42:55.074Z,35.43
2022-11-02T04:45:23.361Z,35.52
2022-11-02T04:47:52.952Z,35.23
2022-11-02T04:50:21.036Z,35.57
2022-11-02T04:52:56.891Z,34.63
2022-11-02T04:55:25.112Z,35.35
2022-11-02T04:57:53.467Z,35.50
2022-11-02T05:00:22.716Z,35.52
2022-11-02T05:02:52.644Z,35.37
2022-11-02T05:05:20.896Z,35.80
2022-11-02T05:07:49.300Z,36.10
2022-11-02T05:10:17.588Z,36.27
2022-11-02T05:12:45.895Z,36.46
2022-11-02T05:15:14.065Z,36.16
2022-11-02T05:17:42.504Z,36.27
2022-11-02T05:20:12.511Z,35.88
2022-11-02T05:22:43.363Z,36.13
2022-11-02T05:25:11.745Z,36.31
2022-11-02T05:27:40.214Z,36.71
2022-11-02T05:30:09.109Z,36.73
2022-11-02T05:32:37.531Z,36.55
2022-11-02T05:35:06.345Z,36.56
2022-11-02T05:37:36.179Z,36.54
2022-11-02T05:40:04.982Z,36.39
2022-11-02T05:42:33.391Z,36.48
2022-11-02T05:45:03.203Z,35.95
2022-11-02T05:47:31.497Z,36.31
2022-11-02T05:49:59.627Z,36.50
2022-11-02T05:52:27.957Z,36.29
2022-11-02T05:54:57.414Z,36.02
2022-11-02T05:57:25.773Z,36.29
2022-11-02T05:59:54.049Z,36.31
2022-11-02T06:02:24.756Z,36.44
2022-11-02T06:04:53.903Z,34.69
2022-11-02T06:07:22.242Z,36.26
2022-11-02T06:09:50.357Z,36.36
2022-11-02T06:12:20.264Z,36.27
2022-11-02T06:14:48.354Z,36.12
2022-11-02T06:17:16.587Z,35.94
2022-11-02T06:19:44.696Z,35.78
2022-11-02T06:22:12.996Z,36.06
2022-11-02T06:24:41.246Z,35.99
2022-11-02T06:27:09.586Z,35.87
2022-11-02T06:29:39.560Z,35.48
2022-11-02T06:32:07.779Z,35.46
2022-11-02T06:34:36.012Z,35.38
2022-11-02T06:37:04.265Z,35.30
2022-11-02T06:39:32.429Z,35.18
2022-11-02T06:42:00.662Z,35.12
2022-11-02T06:44:28.878Z,34.83
2022-11-02T06:46:59.643Z,34.49
2022-11-02T06:49:27.837Z,34.30
2022-11-02T06:51:56.172Z,33.72
2022-11-02T06:54:24.415Z,33.60
2022-11-02T06:56:52.772Z,33.22
2022-11-02T06:59:21.053Z,32.55
2022-11-02T07:01:54.059Z,32.19
2022-11-02T07:04:23.883Z,31.44
2022-11-02T07:06:52.151Z,30.60
2022-11-02T07:09:20.289Z,29.02
2022-11-02T07:11:48.507Z,28.07
2022-11-02T07:14:16.651Z,26.14
2022-11-02T07:16:45.157Z,25.52
2022-11-02T07:19:13.338Z,24.69
2022-11-02T07:21:46.557Z,23.98
2022-11-02T07:24:16.135Z,23.84
2022-11-02T07:26:44.573Z,22.81
2022-11-02T07:29:12.668Z,21.03
2022-11-02T07:31:41.367Z,20.32
2022-11-02T07:34:14.055Z,19.33
2022-11-02T07:36:46.354Z,18.01
2022-11-02T07:39:14.563Z,17.63
2022-11-02T07:41:45.661Z,16.99
2022-11-02T07:44:16.900Z,16.31
2022-11-02T07:46:45.394Z,16.20
2022-11-02T07:49:17.314Z,15.47
2022-11-02T07:51:50.107Z,14.88
2022-11-02T07:54:18.181Z,14.94
2022-11-02T07:56:46.647Z,14.18
2022-11-02T07:59:14.803Z,13.54
2022-11-02T08:01:43.217Z,13.04
2022-11-02T08:04:11.609Z,12.93
2022-11-02T08:06:40.070Z,12.55
2022-11-02T08:09:09.604Z,12.29
2022-11-02T08:11:58.245Z,12.15
2022-11-02T08:14:26.263Z,11.81
2022-11-02T08:16:54.808Z,11.86
2022-11-02T08:19:23.217Z,11.19
2022-11-02T08:21:51.454Z,11.04
2022-11-02T08:24:21.188Z,10.58
2022-11-02T08:26:52.316Z,10.64
2022-11-02T08:29:23.431Z,10.77
2022-11-02T08:31:51.696Z,10.98
2022-11-02T08:34:20.077Z,11.04
2022-11-02T08:36:48.297Z,10.80
2022-11-02T08:39:19.160Z,10.44
2022-11-02T08:41:48.834Z,10.45
2022-11-02T08:44:17.404Z,10.30
2022-11-02T08:46:45.705Z,9.76
2022-11-02T08:49:14.160Z,9.24
2022-11-02T08:51:42.394Z,9.56
2022-11-02T08:54:10.936Z,9.56
2022-11-02T08:56:39.196Z,9.16
2022-11-02T08:59:09.679Z,9.00
2022-11-02T09:01:39.160Z,9.30
2022-11-02T09:04:07.618Z,8.98
2022-11-02T09:06:35.819Z,9.68
2022-11-02T09:09:04.147Z,9.81
2022-11-02T09:11:32.293Z,9.15
2022-11-02T09:14:00.639Z,9.22
2022-11-02T09:16:30.127Z,8.61
2022-11-02T09:18:58.485Z,8.31
2022-11-02T09:21:26.739Z,8.40
2022-11-02T09:23:55.206Z,7.41
2022-11-02T09:26:23.305Z,7.31
2022-11-02T09:28:51.676Z,6.67
2022-11-02T09:31:19.812Z,6.67
2022-11-02T09:33:49.566Z,6.99
2022-11-02T09:36:17.716Z,7.09
2022-11-02T09:38:46.125Z,7.17
2022-11-02T09:41:17.664Z,7.78
2022-11-02T09:43:54.995Z,8.23
2022-11-02T09:46:25.725Z,7.82
2022-11-02T09:48:58.235Z,7.22
2022-11-02T09:51:29.553Z,7.20
2022-11-02T09:54:04.879Z,7.32
2022-11-02T09:56:33.615Z,7.02
2022-11-02T09:59:04.293Z,6.30
2022-11-02T10:01:55.549Z,6.24
2022-11-02T10:04:50.504Z,5.99
2022-11-02T10:07:25.599Z,6.54
2022-11-02T10:09:56.102Z,6.93
2022-11-02T10:12:29.578Z,5.84
2022-11-02T10:15:03.916Z,5.47
2022-11-02T10:17:35.784Z,5.99
2022-11-02T10:20:08.538Z,5.46
2022-11-02T10:22:39.368Z,5.37
2022-11-02T10:25:09.152Z,5.55
2022-11-02T10:27:40.082Z,5.13
2022-11-02T10:30:12.399Z,5.02
2022-11-02T10:35:40.698Z,4.71
2022-11-02T10:38:16.726Z,4.17
2022-11-02T10:41:00.435Z,4.08
2022-11-02T10:43:36.312Z,3.91
2022-11-02T10:46:20.804Z,3.98
2022-11-02T10:48:57.647Z,4.32
2022-11-02T10:51:27.583Z,4.56
2022-11-02T10:53:55.858Z,4.73
2022-11-02T10:56:25.294Z,4.43
2022-11-02T10:59:00.623Z,4.22
2022-11-02T11:01:30.965Z,4.28
2022-11-02T11:04:01.179Z,4.03
2022-11-02T11:06:33.449Z,4.49
2022-11-02T11:09:04.482Z,4.69
2022-11-02T11:11:34.702Z,4.99
2022-11-02T11:16:55.431Z,5.40
2022-11-02T11:22:28.642Z,5.09
2022-11-02T11:25:25.850Z,4.98
2022-11-02T11:27:56.456Z,4.97
2022-11-02T11:30:58.504Z,5.33
2022-11-02T11:33:16.447Z,6.08
2022-11-02T11:35:49.401Z,6.64
2022-11-02T11:38:21.273Z,6.49
2022-11-02T11:40:53.961Z,7.09
2022-11-02T11:43:24.481Z,7.72
2022-11-02T11:46:01.919Z,9.08
2022-11-02T11:48:36.829Z,10.93
2022-11-02T11:51:06.281Z,12.67
2022-11-02T11:53:38.773Z,13.32
2022-11-02T11:56:07.417Z,14.31
2022-11-02T11:58:36.196Z,15.23
2022-11-02T12:01:10.716Z,15.57
2022-11-02T12:03:53.294Z,15.68
2022-11-02T12:06:26.883Z,16.29
2022-11-02T12:09:04.550Z,16.87
2022-11-02T12:11:48.549Z,17.08
2022-11-02T12:14:29.590Z,17.24
2022-11-02T12:17:10.789Z,17.34
2022-11-02T12:19:51.993Z,17.84
2022-11-02T12:22:25.359Z,17.82
2022-11-02T12:25:30.200Z,17.95
2022-11-02T12:28:04.621Z,18.32
2022-11-02T12:30:37.981Z,18.52
2022-11-02T12:33:10.072Z,19.07
2022-11-02T12:36:06.824Z,18.51
2022-11-02T12:39:08.264Z,18.63
2022-11-02T12:41:46.333Z,18.88
2022-11-02T12:44:35.556Z,18.93
2022-11-02T12:47:09.976Z,19.48
2022-11-02T12:49:42.852Z,19.44
2022-11-02T12:52:22.857Z,19.50
2022-11-02T12:54:55.349Z,19.26
2022-11-02T12:57:27.061Z,19.46
2022-11-02T12:59:59.225Z,19.49
2022-11-02T13:02:30.366Z,19.53
2022-11-02T13:05:01.843Z,19.53
2022-11-02T13:07:33.509Z,19.59
2022-11-02T13:10:04.792Z,19.52
2022-11-02T13:12:37.493Z,19.75
2022-11-02T13:15:11.796Z,20.08
2022-11-02T13:17:44.255Z,19.92
2022-11-02T13:20:17.300Z,19.89
2022-11-02T13:22:48.728Z,20.17
2022-11-02T13:25:19.818Z,20.01
2022-11-02T13:27:50.403Z,19.77
2022-11-02T13:30:19.776Z,20.56
2022-11-02T13:32:51.619Z,20.51
2022-11-02T13:35:30.958Z,20.59
2022-11-02T13:38:05.700Z,20.63
2022-11-02T13:40:38.197Z,21.11
2022-11-02T13:43:42.049Z,20.78
2022-11-02T13:46:20.087Z,21.22
2022-11-02T13:48:56.191Z,21.39
2022-11-02T13:51:32.634Z,21.42
2022-11-02T13:54:03.121Z,22.05
2022-11-02T13:56:31.595Z,22.14
2022-11-02T13:59:03.946Z,21.89
2022-11-02T14:01:34.271Z,22.36
2022-11-02T14:04:07.443Z,22.75
2022-11-02T14:06:46.171Z,22.52
2022-11-02T14:09:26.091Z,22.90
2022-11-02T14:12:12.711Z,22.83
2022-11-02T14:14:42.637Z,23.30
2022-11-02T14:17:15.081Z,22.84
2022-11-02T14:19:55.584Z,23.05
2022-11-02T14:22:23.903Z,23.83
2022-11-02T14:25:17.504Z,23.43
2022-11-02T14:27:45.988Z,24.19
2022-11-02T14:30:47.601Z,23.52
2022-11-02T14:33:42.442Z,23.47
2022-11-02T14:36:19.673Z,24.47
2022-11-02T14:38:56.284Z,24.17
2022-11-02T14:41:48.633Z,24.50
2022-11-02T14:44:45.542Z,24.44
2022-11-02T14:47:16.485Z,24.44
2022-11-02T14:49:49.598Z,24.65
2022-11-02T14:52:36.170Z,24.08
2022-11-02T14:55:06.887Z,24.65
2022-11-02T14:57:37.039Z,24.98
2022-11-02T15:00:07.613Z,25.27
2022-11-02T15:02:43.007Z,24.91
2022-11-02T15:05:24.028Z,24.95
2022-11-02T15:07:55.584Z,25.40
2022-11-02T15:10:37.911Z,24.51
2022-11-02T15:13:43.545Z,25.22
2022-11-02T15:16:27.308Z,25.17
2022-11-02T15:19:36.619Z,25.24
2022-11-02T15:22:30.223Z,25.58
2022-11-02T15:25:00.987Z,26.99
2022-11-02T15:27:29.854Z,27.05
2022-11-02T15:29:58.919Z,26.95
2022-11-02T15:32:28.266Z,27.20
2022-11-02T15:34:58.544Z,27.38
2022-11-02T15:37:29.565Z,27.29
2022-11-02T15:39:58.546Z,26.63
2022-11-02T15:42:38.980Z,27.21
2022-11-02T15:45:34.224Z,27.20
2022-11-02T15:48:17.902Z,27.14
2022-11-02T15:50:54.230Z,27.32
2022-11-02T15:53:38.410Z,27.41
2022-11-02T15:56:25.221Z,27.51
2022-11-02T15:59:12.530Z,27.18
2022-11-02T16:01:41.631Z,27.93
2022-11-02T16:04:18.465Z,27.89
2022-11-02T16:06:49.568Z,28.28
2022-11-02T16:09:32.473Z,27.96
2022-11-02T16:12:05.369Z,28.14
2022-11-02T16:14:33.712Z,28.87
2022-11-02T16:17:02.138Z,28.90
2022-11-02T16:19:30.198Z,29.20
2022-11-02T16:22:01.543Z,29.19
2022-11-02T16:24:30.067Z,29.18
2022-11-02T16:26:58.789Z,29.06
2022-11-02T16:29:30.909Z,28.69
2022-11-02T16:31:59.410Z,29.15
2022-11-02T16:34:29.953Z,28.98
2022-11-02T16:37:00.334Z,28.81
2022-11-02T16:39:30.497Z,28.81
2022-11-02T16:42:00.577Z,28.95
2022-11-02T16:44:29.902Z,28.75
2022-11-02T16:47:00.136Z,28.69
2022-11-02T16:49:29.473Z,28.21
2022-11-02T16:52:00.361Z,27.97
2022-11-02T16:54:42.234Z,27.40
2022-11-02T16:57:13.827Z,26.56
2022-11-02T16:59:51.645Z,27.21
2022-11-02T17:02:21.125Z,27.30
2022-11-02T17:07:22.640Z,26.92
2022-11-02T17:09:54.097Z,26.49
2022-11-02T17:12:25.130Z,26.25
2022-11-02T17:14:53.421Z,25.43
2022-11-02T17:17:36.637Z,25.90
2022-11-02T17:20:18.170Z,25.48
2022-11-02T17:22:51.568Z,25.19
2022-11-02T17:25:22.608Z,25.83
2022-11-02T17:27:51.507Z,25.75
2022-11-02T17:30:45.028Z,25.20
2022-11-02T17:33:28.451Z,25.46
2022-11-02T17:35:58.348Z,26.00
2022-11-02T17:38:28.664Z,25.64
2022-11-02T17:40:57.160Z,25.97
2022-11-02T17:43:24.317Z,26.12
2022-11-02T17:45:57.150Z,25.76
2022-11-02T17:48:25.693Z,26.13
2022-11-02T17:50:55.395Z,26.21
2022-11-02T17:53:24.221Z,26.36
2022-11-02T17:55:54.542Z,26.38
2022-11-02T17:58:22.700Z,26.60
2022-11-02T18:00:53.937Z,26.55
2022-11-02T18:03:25.378Z,26.50
2022-11-02T18:05:59.822Z,26.71
2022-11-02T18:08:28.282Z,26.75
2022-11-02T18:10:58.261Z,26.68
2022-11-02T18:13:26.311Z,26.77
2022-11-02T18:15:54.785Z,26.91
2022-11-02T18:18:23.215Z,26.84
2022-11-02T18:20:51.613Z,26.86
2022-11-02T18:23:20.506Z,26.93
2022-11-02T18:25:49.081Z,26.79
2022-11-02T18:28:18.678Z,26.52
2022-11-02T18:30:47.077Z,27.02
2022-11-02T18:33:15.624Z,26.91
2022-11-02T18:35:44.321Z,27.20
2022-11-02T18:38:12.971Z,27.12
2022-11-02T18:40:41.610Z,27.37
2022-11-02T18:43:10.051Z,27.29
2022-11-02T18:45:40.270Z,27.17
2022-11-02T18:48:09.794Z,27.19
2022-11-02T18:50:38.493Z,27.28
2022-11-02T18:53:06.715Z,27.35
2022-11-02T18:55:35.113Z,27.42
2022-11-02T18:58:03.551Z,27.51
2022-11-02T19:00:32.182Z,27.70
2022-11-02T19:03:01.914Z,27.46
2022-11-02T19:05:59.549Z,27.78
2022-11-02T19:08:45.254Z,27.91
2022-11-02T19:11:13.736Z,27.94
2022-11-02T19:13:41.861Z,28.20
2022-11-02T19:16:10.278Z,28.25
2022-11-02T19:18:39.794Z,27.95
2022-11-02T19:21:08.304Z,27.97
2022-11-02T19:23:36.714Z,27.95
2022-11-02T19:26:06.713Z,27.86
2022-11-02T19:28:34.918Z,27.79
2022-11-02T19:31:06.041Z,27.49
2022-11-02T19:33:34.231Z,27.73
2022-11-02T19:36:04.169Z,27.52
2022-11-02T19:38:37.431Z,27.36
2022-11-02T19:41:09.904Z,27.76
2022-11-02T19:43:39.116Z,28.02
2022-11-02T19:46:08.711Z,27.85
2022-11-02T19:48:36.912Z,27.64
2022-11-02T19:51:09.216Z,27.41
2022-11-02T19:53:38.352Z,27.43
2022-11-02T19:56:10.499Z,27.40
2022-11-02T19:58:39.438Z,27.44
2022-11-02T20:01:09.497Z,27.36
2022-11-02T20:03:38.455Z,27.88
2022-11-02T20:06:11.742Z,27.51
2022-11-02T20:08:40.236Z,28.05
2022-11-02T20:11:09.860Z,27.77
2022-11-02T20:13:40.448Z,27.74
2022-11-02T20:16:09.566Z,28.09
2022-11-02T20:18:39.798Z,28.16
2022-11-02T20:21:12.669Z,27.86
2022-11-02T20:23:41.759Z,28.47
2022-11-02T20:26:12.053Z,28.66
2022-11-02T20:28:41.809Z,28.82
2022-11-02T20:31:11.469Z,28.93
2022-11-02T20:33:40.920Z,28.99
2022-11-02T20:36:11.572Z,28.81
2022-11-02T20:38:42.243Z,29.43
2022-11-02T20:41:12.477Z,29.34
2022-11-02T20:43:41.912Z,29.44
2022-11-02T20:46:36.556Z,29.44
2022-11-02T20:49:09.045Z,28.27
2022-11-02T20:51:51.448Z,29.37
2022-11-02T20:54:20.194Z,29.57
2022-11-02T20:56:48.910Z,29.77
2022-11-02T20:59:17.123Z,29.66
2022-11-02T21:01:46.061Z,29.98
2022-11-02T21:04:20.232Z,30.05
2022-11-02T21:06:51.285Z,29.91
2022-11-02T21:09:19.535Z,29.88
2022-11-02T21:12:05.775Z,29.81
2022-11-02T21:14:33.942Z,29.77
2022-11-02T21:17:03.224Z,29.78
2022-11-02T21:19:31.402Z,29.69
2022-11-02T21:22:01.180Z,29.49
2022-11-02T21:24:29.725Z,29.53
2022-11-02T21:26:58.336Z,29.30
2022-11-02T21:29:26.475Z,29.22
2022-11-02T21:31:54.906Z,29.27
2022-11-02T21:34:23.071Z,29.20
2022-11-02T21:36:51.449Z,29.22
2022-11-02T21:39:20.867Z,28.91
2022-11-02T21:41:49.545Z,29.61
2022-11-02T21:44:17.630Z,29.74
2022-11-02T21:46:46.195Z,29.94
2022-11-02T21:49:14.277Z,29.67
2022-11-02T21:51:43.033Z,29.43
2022-11-02T21:54:11.486Z,29.91
2022-11-02T21:56:41.387Z,29.64
2022-11-02T21:59:10.178Z,29.89
2022-11-02T22:01:49.431Z,29.64
2022-11-02T22:04:19.608Z,29.83
2022-11-02T22:06:48.270Z,29.68
2022-11-02T22:09:16.428Z,29.69
2022-11-02T22:11:46.413Z,29.44
2022-11-02T22:14:15.229Z,29.85
2022-11-02T22:16:44.707Z,29.75
2022-11-02T22:19:13.701Z,30.19
2022-11-02T22:21:43.847Z,30.35
2022-11-02T22:24:12.468Z,30.34
2022-11-02T22:26:41.316Z,30.38
2022-11-02T22:29:11.420Z,30.24
2022-11-02T22:31:41.674Z,30.45
2022-11-02T22:34:12.020Z,30.74
2022-11-02T22:36:41.976Z,30.80
2022-11-02T22:39:11.976Z,30.62
2022-11-02T22:41:41.411Z,30.78
2022-11-02T22:44:12.255Z,30.72
2022-11-02T22:46:41.677Z,30.93
2022-11-02T22:49:11.262Z,31.05
2022-11-02T22:51:41.312Z,31.37
2022-11-02T22:54:11.803Z,31.27
2022-11-02T22:56:40.212Z,31.02
2022-11-02T22:59:08.481Z,31.21
2022-11-02T23:01:38.601Z,31.19
2022-11-02T23:04:07.990Z,31.22
2022-11-02T23:06:36.455Z,31.19
2022-11-02T23:09:05.065Z,30.83
2022-11-02T23:11:35.529Z,30.85
2022-11-02T23:14:05.609Z,30.60
2022-11-02T23:16:35.054Z,30.57
2022-11-02T23:19:27.628Z,30.65
2022-11-02T23:22:14.991Z,30.98
2022-11-02T23:25:02.399Z,31.11
2022-11-02T23:27:30.991Z,31.32
2022-11-02T23:30:16.620Z,31.22
2022-11-02T23:32:44.810Z,31.53
2022-11-02T23:35:32.208Z,31.29
2022-11-02T23:38:05.348Z,31.23
2022-11-02T23:40:34.178Z,31.90
2022-11-02T23:43:03.273Z,31.95
2022-11-02T23:45:31.954Z,31.85
2022-11-02T23:48:01.448Z,31.92
2022-11-02T23:50:50.676Z,31.71
2022-11-02T23:53:38.269Z,32.05
2022-11-02T23:56:42.077Z,32.30
2022-11-02T23:59:10.176Z,32.39
